createdAt,value
2023-03-05T00:00:17.501Z,-1.88
2023-03-05T00:03:59.063Z,-1.92
2023-03-05T00:07:03.424Z,-1.95
2023-03-05T00:10:08.569Z,-1.98
2023-03-05T00:13:12.524Z,-2.00
2023-03-05T00:16:16.582Z,-2.03
2023-03-05T00:19:20.616Z,-2.06
2023-03-05T00:22:24.631Z,-2.08
2023-03-05T00:25:28.546Z,-2.11
2023-03-05T00:28:32.451Z,-2.14
2023-03-05T00:31:37.328Z,-2.18
2023-03-05T00:34:41.416Z,-2.22
2023-03-05T00:37:45.433Z,-2.26
2023-03-05T00:40:50.974Z,-2.27
2023-03-05T00:43:55.416Z,-2.28
2023-03-05T00:46:59.626Z,-2.31
2023-03-05T00:50:05.406Z,-2.33
2023-03-05T00:53:10.112Z,-2.34
2023-03-05T00:56:14.194Z,-2.36
2023-03-05T00:59:18.132Z,-2.38
2023-03-05T01:02:22.167Z,-2.40
2023-03-05T01:05:26.534Z,-2.43
2023-03-05T01:08:30.592Z,-2.45
2023-03-05T01:11:34.707Z,-2.47
2023-03-05T01:14:38.825Z,-2.48
2023-03-05T01:17:42.765Z,-2.50
2023-03-05T01:20:47.578Z,-2.52
2023-03-05T01:23:51.452Z,-2.55
2023-03-05T01:26:55.492Z,-2.58
2023-03-05T01:29:59.613Z,-2.61
2023-03-05T01:33:04.161Z,-2.64
2023-03-05T01:36:13.503Z,-2.66
2023-03-05T01:39:17.677Z,-2.67
2023-03-05T01:42:22.100Z,-2.70
2023-03-05T01:45:26.836Z,-2.71
2023-03-05T01:48:31.382Z,-2.72
2023-03-05T01:51:44.937Z,-2.72
2023-03-05T01:54:51.088Z,-2.73
2023-03-05T01:58:06.658Z,-2.73
2023-03-05T02:01:10.856Z,-2.71
2023-03-05T02:04:19.509Z,-2.73
2023-03-05T02:07:24.453Z,-2.72
2023-03-05T02:10:33.300Z,-2.73
2023-03-05T02:13:40.875Z,-2.74
2023-03-05T02:16:45.546Z,-2.76
2023-03-05T02:20:02.229Z,-2.77
2023-03-05T02:23:06.247Z,-2.79
2023-03-05T02:26:11.188Z,-2.80
2023-03-05T02:29:20.058Z,-2.80
2023-03-05T02:32:24.058Z,-2.80
2023-03-05T02:35:28.173Z,-2.81
2023-03-05T02:38:32.649Z,-2.81
2023-03-05T02:41:37.099Z,-2.82
2023-03-05T02:44:41.524Z,-2.82
2023-03-05T02:47:45.454Z,-2.83
2023-03-05T02:50:49.636Z,-2.85
2023-03-05T02:53:54.391Z,-2.86
2023-03-05T02:56:59.840Z,-2.88
2023-03-05T03:00:06.116Z,-2.88
2023-03-05T03:03:10.154Z,-2.89
2023-03-05T03:06:14.344Z,-2.90
2023-03-05T03:09:18.362Z,-2.91
2023-03-05T03:12:22.518Z,-2.92
2023-03-05T03:15:26.594Z,-2.91
2023-03-05T03:18:30.614Z,-2.90
2023-03-05T03:21:34.632Z,-2.92
2023-03-05T03:24:39.784Z,-2.92
2023-03-05T03:27:43.741Z,-2.92
2023-03-05T03:30:47.852Z,-2.90
2023-03-05T03:33:52.026Z,-2.90
2023-03-05T03:36:56.043Z,-2.91
2023-03-05T03:40:00.069Z,-2.90
2023-03-05T03:43:04.282Z,-2.90
2023-03-05T03:46:08.332Z,-2.91
2023-03-05T03:49:22.551Z,-2.91
2023-03-05T03:52:27.079Z,-2.90
2023-03-05T03:55:31.097Z,-2.90
2023-03-05T03:58:35.488Z,-2.89
2023-03-05T04:01:39.592Z,-2.88
2023-03-05T04:04:44.164Z,-2.88
2023-03-05T04:07:48.130Z,-2.89
2023-03-05T04:10:52.118Z,-2.90
2023-03-05T04:13:56.102Z,-2.91
2023-03-05T04:17:00.240Z,-2.91
2023-03-05T04:20:06.957Z,-2.92
2023-03-05T04:23:10.936Z,-2.93
2023-03-05T04:26:14.944Z,-2.92
2023-03-05T04:29:19.363Z,-2.92
2023-03-05T04:32:26.205Z,-2.91
2023-03-05T04:35:30.430Z,-2.89
2023-03-05T04:38:34.599Z,-2.88
2023-03-05T04:41:38.651Z,-2.85
2023-03-05T04:44:42.570Z,-2.82
2023-03-05T04:47:46.522Z,-2.78
2023-03-05T04:50:50.621Z,-2.76
2023-03-05T04:53:54.607Z,-2.72
2023-03-05T04:56:58.692Z,-2.70
2023-03-05T05:00:14.445Z,-2.66
2023-03-05T05:03:18.982Z,-2.62
2023-03-05T05:06:23.114Z,-2.58
2023-03-05T05:09:27.225Z,-2.54
2023-03-05T05:12:31.595Z,-2.52
2023-03-05T05:15:35.551Z,-2.50
2023-03-05T05:18:39.672Z,-2.48
2023-03-05T05:21:43.679Z,-2.45
2023-03-05T05:24:47.642Z,-2.43
2023-03-05T05:27:51.626Z,-2.41
2023-03-05T05:30:56.155Z,-2.39
2023-03-05T05:34:00.112Z,-2.38
2023-03-05T05:37:04.118Z,-2.37
2023-03-05T05:40:08.886Z,-2.36
2023-03-05T05:43:12.826Z,-2.33
2023-03-05T05:46:19.471Z,-2.32
2023-03-05T05:49:23.642Z,-2.28
2023-03-05T05:52:27.656Z,-2.24
2023-03-05T05:55:31.666Z,-2.20
2023-03-05T05:58:37.911Z,-2.17
2023-03-05T06:01:42.150Z,-2.12
2023-03-05T06:04:46.069Z,-2.07
2023-03-05T06:07:50.088Z,-2.02
2023-03-05T06:10:56.805Z,-1.96
2023-03-05T06:14:03.014Z,-1.91
2023-03-05T06:17:07.149Z,-1.88
2023-03-05T06:20:12.180Z,-1.83
2023-03-05T06:23:16.212Z,-1.77
2023-03-05T06:26:22.370Z,-1.71
2023-03-05T06:29:26.278Z,-1.65
2023-03-05T06:32:30.322Z,-1.61
2023-03-05T06:35:34.442Z,-1.56
2023-03-05T06:38:39.562Z,-1.52
2023-03-05T06:41:44.689Z,-1.49
2023-03-05T06:44:48.752Z,-1.46
2023-03-05T06:47:52.728Z,-1.45
2023-03-05T06:50:56.748Z,-1.42
2023-03-05T06:54:03.837Z,-1.40
2023-03-05T06:57:07.879Z,-1.36
2023-03-05T07:00:12.947Z,-1.34
2023-03-05T07:03:17.210Z,-1.31
2023-03-05T07:06:22.472Z,-1.27
2023-03-05T07:09:26.472Z,-1.21
2023-03-05T07:12:30.600Z,-1.14
2023-03-05T07:15:37.599Z,-1.01
2023-03-05T07:18:42.156Z,-0.86
2023-03-05T07:21:46.305Z,-0.69
2023-03-05T07:24:51.156Z,-0.50
2023-03-05T07:27:55.244Z,-0.33
2023-03-05T07:31:07.601Z,-0.18
2023-03-05T07:34:11.633Z,-0.04
2023-03-05T07:37:15.637Z,0.10
2023-03-05T07:40:19.846Z,0.22
2023-03-05T07:43:23.810Z,0.33
2023-03-05T07:46:32.521Z,0.40
2023-03-05T07:49:36.601Z,0.48
2023-03-05T07:52:40.522Z,0.58
2023-03-05T07:55:46.273Z,0.66
2023-03-05T07:58:50.564Z,0.74
2023-03-05T08:01:54.612Z,0.83
2023-03-05T08:04:58.846Z,0.92
2023-03-05T08:08:02.783Z,1.00
2023-03-05T08:11:09.931Z,1.07
2023-03-05T08:14:13.915Z,1.14
2023-03-05T08:17:17.966Z,1.20
2023-03-05T08:20:21.983Z,1.27
2023-03-05T08:23:26.506Z,1.30
2023-03-05T08:26:32.448Z,1.32
2023-03-05T08:29:36.375Z,1.37
2023-03-05T08:32:40.748Z,1.39
2023-03-05T08:35:45.445Z,1.41
2023-03-05T08:38:50.678Z,1.42
2023-03-05T08:41:54.630Z,1.41
2023-03-05T08:44:58.614Z,1.42
2023-03-05T08:48:02.746Z,1.44
2023-03-05T08:51:12.895Z,1.45
2023-03-05T08:54:16.904Z,1.45
2023-03-05T08:57:20.851Z,1.43
2023-03-05T09:00:25.018Z,1.45
2023-03-05T09:03:29.154Z,1.49
2023-03-05T09:06:34.713Z,1.51
2023-03-05T09:09:39.094Z,1.52
2023-03-05T09:12:43.039Z,1.54
2023-03-05T09:15:58.082Z,1.56
2023-03-05T09:19:02.067Z,1.59
2023-03-05T09:22:06.160Z,1.59
2023-03-05T09:25:12.122Z,1.64
2023-03-05T09:28:17.009Z,1.69
2023-03-05T09:31:20.891Z,1.72
2023-03-05T09:34:24.969Z,1.74
2023-03-05T09:37:29.714Z,1.74
2023-03-05T09:40:42.742Z,1.74
2023-03-05T09:44:05.188Z,1.74
2023-03-05T09:47:44.830Z,1.74
2023-03-05T09:50:54.308Z,1.71
2023-03-05T09:54:05.519Z,1.65
2023-03-05T09:57:18.636Z,1.65
2023-03-05T10:00:31.935Z,1.66
2023-03-05T10:04:00.961Z,1.64
2023-03-05T10:07:21.022Z,1.63
2023-03-05T10:10:44.566Z,1.64
2023-03-05T10:13:49.945Z,1.68
2023-03-05T10:17:06.054Z,1.73
2023-03-05T10:20:31.668Z,1.78
2023-03-05T10:24:13.570Z,1.81
2023-03-05T10:27:33.762Z,1.83
2023-03-05T10:30:56.219Z,1.84
2023-03-05T10:34:09.140Z,1.85
2023-03-05T10:37:34.255Z,1.86
2023-03-05T10:40:55.344Z,1.87
2023-03-05T10:44:23.856Z,1.83
2023-03-05T10:47:53.193Z,1.74
2023-03-05T10:51:14.083Z,1.68
2023-03-05T10:54:30.280Z,1.60
2023-03-05T10:57:34.230Z,1.55
2023-03-05T11:00:38.942Z,1.50
2023-03-05T11:03:48.556Z,1.47
2023-03-05T11:06:52.585Z,1.45
2023-03-05T11:10:29.676Z,1.40
2023-03-05T11:13:36.431Z,1.36
2023-03-05T11:16:48.972Z,1.32
2023-03-05T11:19:52.992Z,1.28
2023-03-05T11:23:03.970Z,1.26
2023-03-05T11:26:13.676Z,1.24
2023-03-05T11:29:46.919Z,1.24
2023-03-05T11:32:50.929Z,1.19
2023-03-05T11:36:12.871Z,1.13
2023-03-05T11:39:19.450Z,1.09
2023-03-05T11:42:25.522Z,1.07
2023-03-05T11:45:31.926Z,1.08
2023-03-05T11:48:38.548Z,1.09
2023-03-05T11:51:50.981Z,1.06
2023-03-05T11:55:11.167Z,1.01
2023-03-05T11:58:33.490Z,1.00
2023-03-05T12:01:45.052Z,1.02
2023-03-05T12:04:50.009Z,0.99
2023-03-05T12:08:00.294Z,0.96
2023-03-05T12:11:13.231Z,0.96
2023-03-05T12:14:39.755Z,0.95
2023-03-05T12:17:52.166Z,0.99
2023-03-05T12:21:34.921Z,1.05
2023-03-05T12:24:39.962Z,1.14
2023-03-05T12:27:44.071Z,1.19
2023-03-05T12:30:47.984Z,1.20
2023-03-05T12:33:52.005Z,1.20
2023-03-05T12:36:56.018Z,1.17
2023-03-05T12:40:08.841Z,1.12
2023-03-05T12:43:35.179Z,1.06
2023-03-05T12:46:43.974Z,0.99
2023-03-05T12:49:48.634Z,0.95
2023-03-05T12:52:53.619Z,0.89
2023-03-05T12:56:02.135Z,0.86
2023-03-05T12:59:06.163Z,0.86
2023-03-05T13:02:21.166Z,0.86
2023-03-05T13:05:34.315Z,0.91
2023-03-05T13:08:38.420Z,0.99
2023-03-05T13:11:46.347Z,1.07
2023-03-05T13:15:09.706Z,1.11
2023-03-05T13:18:23.496Z,1.15
2023-03-05T13:21:29.832Z,1.14
2023-03-05T13:24:34.240Z,1.12
2023-03-05T13:27:38.359Z,1.09
2023-03-05T13:31:16.180Z,1.08
2023-03-05T13:34:26.561Z,1.10
2023-03-05T13:37:34.628Z,1.08
2023-03-05T13:40:40.917Z,1.05
2023-03-05T13:43:49.845Z,1.03
2023-03-05T13:46:53.858Z,1.04
2023-03-05T13:50:00.150Z,1.04
2023-03-05T13:53:30.449Z,1.04
2023-03-05T13:56:34.359Z,1.05
2023-03-05T13:59:40.956Z,1.01
2023-03-05T14:02:44.988Z,0.95
2023-03-05T14:05:50.139Z,0.87
2023-03-05T14:09:09.170Z,0.83
2023-03-05T14:12:37.044Z,0.78
2023-03-05T14:15:41.373Z,0.73
2023-03-05T14:18:59.727Z,0.73
2023-03-05T14:22:04.929Z,0.76
2023-03-05T14:25:34.158Z,0.79
2023-03-05T14:28:38.497Z,0.86
2023-03-05T14:31:53.351Z,0.87
2023-03-05T14:34:59.650Z,0.92
2023-03-05T14:38:08.584Z,0.94
2023-03-05T14:41:34.380Z,0.91
2023-03-05T14:44:38.342Z,0.91
2023-03-05T14:47:42.739Z,0.86
2023-03-05T14:50:56.423Z,0.83
2023-03-05T14:54:00.600Z,0.79
2023-03-05T14:57:05.835Z,0.75
2023-03-05T15:00:21.742Z,0.71
2023-03-05T15:03:28.116Z,0.70
2023-03-05T15:06:36.316Z,0.75
2023-03-05T15:09:40.342Z,0.80
2023-03-05T15:12:44.751Z,0.83
2023-03-05T15:15:51.569Z,0.86
2023-03-05T15:18:55.620Z,0.90
2023-03-05T15:21:59.983Z,0.91
2023-03-05T15:25:04.466Z,0.92
2023-03-05T15:28:08.616Z,0.87
2023-03-05T15:31:12.692Z,0.84
2023-03-05T15:34:17.071Z,0.81
2023-03-05T15:37:21.094Z,0.76
2023-03-05T15:40:27.966Z,0.68
2023-03-05T15:43:31.983Z,0.60
2023-03-05T15:46:36.083Z,0.54
2023-03-05T15:49:40.226Z,0.48
2023-03-05T15:52:44.234Z,0.43
2023-03-05T15:55:48.156Z,0.42
2023-03-05T15:58:52.164Z,0.42
2023-03-05T16:01:56.137Z,0.43
2023-03-05T16:05:00.118Z,0.42
2023-03-05T16:08:05.109Z,0.43
2023-03-05T16:11:09.117Z,0.44
2023-03-05T16:14:14.985Z,0.44
2023-03-05T16:17:22.102Z,0.40
2023-03-05T16:20:26.321Z,0.34
2023-03-05T16:23:30.445Z,0.27
2023-03-05T16:26:39.378Z,0.21
2023-03-05T16:29:43.489Z,0.19
2023-03-05T16:32:47.494Z,0.17
2023-03-05T16:36:20.399Z,0.14
2023-03-05T16:39:24.335Z,0.09
2023-03-05T16:42:28.329Z,0.05
2023-03-05T16:45:32.341Z,0.01
2023-03-05T16:48:37.275Z,-0.00
2023-03-05T16:51:42.423Z,0.03
2023-03-05T16:54:47.071Z,0.07
2023-03-05T16:57:51.047Z,0.07
2023-03-05T17:00:55.139Z,0.07
2023-03-05T17:03:59.976Z,0.07
2023-03-05T17:07:05.559Z,0.04
2023-03-05T17:10:10.687Z,0.01
2023-03-05T17:13:14.723Z,-0.04
2023-03-05T17:16:19.547Z,-0.09
2023-03-05T17:19:23.473Z,-0.13
2023-03-05T17:22:27.417Z,-0.18
2023-03-05T17:25:31.407Z,-0.26
2023-03-05T17:28:35.728Z,-0.32
2023-03-05T17:31:40.137Z,-0.35
2023-03-05T17:34:44.579Z,-0.36
2023-03-05T17:37:48.672Z,-0.36
2023-03-05T17:40:52.736Z,-0.35
2023-03-05T17:43:56.828Z,-0.35
2023-03-05T17:47:00.982Z,-0.34
2023-03-05T17:50:07.436Z,-0.37
2023-03-05T17:53:11.738Z,-0.42
2023-03-05T17:56:17.193Z,-0.50
2023-03-05T17:59:21.302Z,-0.58
2023-03-05T18:02:25.365Z,-0.65
2023-03-05T18:05:29.758Z,-0.73
2023-03-05T18:08:33.784Z,-0.80
2023-03-05T18:11:38.182Z,-0.85
2023-03-05T18:14:42.238Z,-0.90
2023-03-05T18:17:46.341Z,-0.93
2023-03-05T18:20:50.345Z,-0.93
2023-03-05T18:23:54.326Z,-0.94
2023-03-05T18:26:58.381Z,-0.96
2023-03-05T18:30:02.392Z,-1.01
2023-03-05T18:33:07.406Z,-1.04
2023-03-05T18:36:12.056Z,-1.10
2023-03-05T18:39:18.687Z,-1.18
2023-03-05T18:42:22.652Z,-1.28
2023-03-05T18:45:26.667Z,-1.38
2023-03-05T18:48:31.110Z,-1.46
2023-03-05T18:51:36.103Z,-1.54
2023-03-05T18:54:40.331Z,-1.59
2023-03-05T18:57:44.597Z,-1.61
2023-03-05T19:00:49.007Z,-1.60
2023-03-05T19:03:54.246Z,-1.57
2023-03-05T19:06:58.261Z,-1.58
2023-03-05T19:10:07.294Z,-1.60
2023-03-05T19:13:25.859Z,-1.64
2023-03-05T19:16:34.061Z,-1.72
2023-03-05T19:19:38.082Z,-1.80
2023-03-05T19:22:42.563Z,-1.85
2023-03-05T19:25:46.479Z,-1.93
2023-03-05T19:28:50.481Z,-1.99
2023-03-05T19:31:54.899Z,-2.02
2023-03-05T19:34:59.090Z,-2.03
2023-03-05T19:38:03.096Z,-2.01
2023-03-05T19:41:09.983Z,-2.00
2023-03-05T19:44:14.366Z,-1.97
2023-03-05T19:47:18.517Z,-1.97
2023-03-05T19:50:23.030Z,-1.99
2023-03-05T19:53:27.365Z,-2.03
2023-03-05T19:56:31.384Z,-2.09
2023-03-05T19:59:35.363Z,-2.15
2023-03-05T20:02:39.416Z,-2.21
2023-03-05T20:05:43.936Z,-2.28
2023-03-05T20:08:48.962Z,-2.32
2023-03-05T20:11:52.970Z,-2.32
2023-03-05T20:14:57.018Z,-2.32
2023-03-05T20:18:01.117Z,-2.30
2023-03-05T20:21:05.250Z,-2.29
2023-03-05T20:24:14.022Z,-2.30
2023-03-05T20:27:18.051Z,-2.32
2023-03-05T20:30:22.159Z,-2.38
2023-03-05T20:33:27.950Z,-2.44
2023-03-05T20:36:32.500Z,-2.51
2023-03-05T20:39:36.511Z,-2.57
2023-03-05T20:42:40.528Z,-2.64
2023-03-05T20:45:45.058Z,-2.70
2023-03-05T20:48:51.517Z,-2.73
2023-03-05T20:51:55.560Z,-2.75
2023-03-05T20:54:59.488Z,-2.74
2023-03-05T20:58:03.491Z,-2.72
2023-03-05T21:01:07.549Z,-2.69
2023-03-05T21:04:11.622Z,-2.67
2023-03-05T21:07:15.660Z,-2.68
2023-03-05T21:10:20.858Z,-2.72
2023-03-05T21:13:25.621Z,-2.77
2023-03-05T21:16:29.518Z,-2.83
2023-03-05T21:19:34.318Z,-2.89
2023-03-05T21:22:38.116Z,-2.97
2023-03-05T21:25:42.232Z,-3.05
2023-03-05T21:28:46.297Z,-3.13
2023-03-05T21:31:50.340Z,-3.21
2023-03-05T21:34:54.268Z,-3.25
2023-03-05T21:37:59.360Z,-3.25
2023-03-05T21:41:04.196Z,-3.25
2023-03-05T21:44:09.646Z,-3.23
2023-03-05T21:47:14.694Z,-3.22
2023-03-05T21:50:20.856Z,-3.22
2023-03-05T21:53:25.486Z,-3.22
2023-03-05T21:56:31.244Z,-3.25
2023-03-05T21:59:35.753Z,-3.27
2023-03-05T22:02:41.304Z,-3.32
2023-03-05T22:05:45.634Z,-3.38
2023-03-05T22:08:49.632Z,-3.44
2023-03-05T22:11:53.674Z,-3.49
2023-03-05T22:14:57.690Z,-3.55
2023-03-05T22:18:01.905Z,-3.60
2023-03-05T22:21:17.186Z,-3.64
2023-03-05T22:24:25.194Z,-3.64
2023-03-05T22:27:30.206Z,-3.62
2023-03-05T22:30:34.129Z,-3.59
2023-03-05T22:33:38.352Z,-3.58
2023-03-05T22:36:42.263Z,-3.59
2023-03-05T22:39:46.202Z,-3.60
2023-03-05T22:42:50.416Z,-3.62
2023-03-05T22:45:54.422Z,-3.65
2023-03-05T22:48:58.444Z,-3.69
2023-03-05T22:52:02.356Z,-3.72
2023-03-05T22:55:07.052Z,-3.74
2023-03-05T22:58:11.007Z,-3.77
2023-03-05T23:01:21.116Z,-3.82
2023-03-05T23:04:48.330Z,-3.86
2023-03-05T23:07:52.454Z,-3.90
2023-03-05T23:10:56.476Z,-3.86
2023-03-05T23:14:00.480Z,-3.79
2023-03-05T23:17:04.812Z,-3.69
2023-03-05T23:20:11.573Z,-3.57
2023-03-05T23:23:15.543Z,-3.48
2023-03-05T23:26:19.461Z,-3.41
2023-03-05T23:29:25.159Z,-3.37
2023-03-05T23:32:29.544Z,-3.36
2023-03-05T23:35:42.136Z,-3.36
2023-03-05T23:38:46.227Z,-3.38
2023-03-05T23:41:50.518Z,-3.41
2023-03-05T23:44:54.611Z,-3.46
2023-03-05T23:47:59.072Z,-3.52
2023-03-05T23:51:08.528Z,-3.58
2023-03-05T23:54:12.548Z,-3.63
2023-03-05T23:57:16.665Z,-3.69
